FYOA

Ondangwa Airport

Ondangwa, Namibia
METAR FYOA 160500Z 16005KT CAVOK 23/18 Q1015
Observed Flight Rules
Jan-16 @ 05:00 UTC (54 minutes ago) Visual Flight Rules
Wind Visibility Clouds
160° at 5 knots 10,000+ meters
  • Clear skies
Temperatures Readings
Current 23°C / 73°F
Dewpoint 18°C / 64°F
Humidity 74%
Altimeter 29.97" Hg
Pressure 1014.92 hPa
Elevation 1095
METAR FYOA 160500Z 16005KT CAVOK 23/18 Q1015
Observed Flight Rules
Jan-16 @ 05:00 UTC
(54 minutes ago)
VFR
Wind Visibility
160° at 5 knots 10,000+ meters
Clouds
  • Clear skies
Temperature Dewpoint
23°C / 73°F 18°C / 64°F
Humidity Altimeter Pressure
74% 29.97" Hg 1014.92 hPa